sensor_id;sensor_type;location;lat;lon;timestamp;P1;durP1;ratioP1;P2;durP2;ratioP2
79074;SDS011;68476;42.710;23.388;2023-04-08T00:01:58;24.52;;;15.80;;
79074;SDS011;68476;42.710;23.388;2023-04-08T00:04:23;27.02;;;15.70;;
79074;SDS011;68476;42.710;23.388;2023-04-08T00:06:48;24.30;;;15.85;;
79074;SDS011;68476;42.710;23.388;2023-04-08T00:09:14;25.58;;;17.08;;
79074;SDS011;68476;42.710;23.388;2023-04-08T00:11:39;27.92;;;17.10;;
79074;SDS011;68476;42.710;23.388;2023-04-08T00:14:05;28.55;;;17.08;;
79074;SDS011;68476;42.710;23.388;2023-04-08T00:16:31;27.08;;;16.20;;
79074;SDS011;68476;42.710;23.388;2023-04-08T00:18:56;26.83;;;16.27;;
79074;SDS011;68476;42.710;23.388;2023-04-08T00:21:22;28.67;;;17.75;;
79074;SDS011;68476;42.710;23.388;2023-04-08T00:23:47;26.88;;;17.38;;
79074;SDS011;68476;42.710;23.388;2023-04-08T00:26:13;29.75;;;17.70;;
79074;SDS011;68476;42.710;23.388;2023-04-08T00:28:38;29.33;;;18.38;;
79074;SDS011;68476;42.710;23.388;2023-04-08T00:31:03;29.52;;;18.58;;
79074;SDS011;68476;42.710;23.388;2023-04-08T00:33:29;29.92;;;19.17;;
79074;SDS011;68476;42.710;23.388;2023-04-08T00:35:55;31.95;;;18.08;;
79074;SDS011;68476;42.710;23.388;2023-04-08T00:38:20;30.00;;;19.58;;
79074;SDS011;68476;42.710;23.388;2023-04-08T00:40:46;31.30;;;18.48;;
79074;SDS011;68476;42.710;23.388;2023-04-08T00:43:11;30.40;;;18.85;;
79074;SDS011;68476;42.710;23.388;2023-04-08T00:45:36;32.30;;;19.88;;
79074;SDS011;68476;42.710;23.388;2023-04-08T00:48:03;36.45;;;21.45;;
79074;SDS011;68476;42.710;23.388;2023-04-08T00:50:29;31.48;;;19.27;;
79074;SDS011;68476;42.710;23.388;2023-04-08T00:52:54;31.50;;;18.90;;
79074;SDS011;68476;42.710;23.388;2023-04-08T00:55:20;31.35;;;18.92;;
79074;SDS011;68476;42.710;23.388;2023-04-08T00:57:45;33.13;;;20.33;;
79074;SDS011;68476;42.710;23.388;2023-04-08T01:00:12;30.42;;;19.23;;
79074;SDS011;68476;42.710;23.388;2023-04-08T01:02:41;31.15;;;18.77;;
79074;SDS011;68476;42.710;23.388;2023-04-08T01:05:20;32.80;;;19.55;;
79074;SDS011;68476;42.710;23.388;2023-04-08T01:07:48;26.17;;;16.98;;
79074;SDS011;68476;42.710;23.388;2023-04-08T01:10:15;27.48;;;16.60;;
79074;SDS011;68476;42.710;23.388;2023-04-08T01:12:47;32.97;;;17.13;;
79074;SDS011;68476;42.710;23.388;2023-04-08T01:15:15;33.50;;;17.60;;
79074;SDS011;68476;42.710;23.388;2023-04-08T01:17:41;35.15;;;18.30;;
79074;SDS011;68476;42.710;23.388;2023-04-08T01:20:08;38.50;;;20.10;;
79074;SDS011;68476;42.710;23.388;2023-04-08T01:25:26;24.50;;;15.32;;
79074;SDS011;68476;42.710;23.388;2023-04-08T01:27:56;23.10;;;14.32;;
79074;SDS011;68476;42.710;23.388;2023-04-08T01:30:24;21.45;;;13.95;;
79074;SDS011;68476;42.710;23.388;2023-04-08T01:32:51;25.45;;;15.88;;
79074;SDS011;68476;42.710;23.388;2023-04-08T01:37:45;29.50;;;16.45;;
79074;SDS011;68476;42.710;23.388;2023-04-08T01:40:13;40.72;;;18.55;;
79074;SDS011;68476;42.710;23.388;2023-04-08T01:42:40;44.03;;;21.48;;
79074;SDS011;68476;42.710;23.388;2023-04-08T01:45:07;36.72;;;18.55;;
79074;SDS011;68476;42.710;23.388;2023-04-08T01:47:34;26.90;;;15.05;;
79074;SDS011;68476;42.710;23.388;2023-04-08T01:50:01;23.67;;;15.85;;
79074;SDS011;68476;42.710;23.388;2023-04-08T01:52:27;22.23;;;14.88;;
79074;SDS011;68476;42.710;23.388;2023-04-08T01:54:54;34.30;;;19.35;;
79074;SDS011;68476;42.710;23.388;2023-04-08T01:57:24;35.45;;;19.38;;
79074;SDS011;68476;42.710;23.388;2023-04-08T01:59:52;31.08;;;15.60;;
79074;SDS011;68476;42.710;23.388;2023-04-08T02:02:24;26.40;;;17.63;;
79074;SDS011;68476;42.710;23.388;2023-04-08T02:04:51;25.98;;;16.45;;
79074;SDS011;68476;42.710;23.388;2023-04-08T02:07:18;27.35;;;16.83;;
79074;SDS011;68476;42.710;23.388;2023-04-08T02:09:43;26.52;;;16.10;;
79074;SDS011;68476;42.710;23.388;2023-04-08T02:12:09;25.38;;;16.10;;
79074;SDS011;68476;42.710;23.388;2023-04-08T02:14:35;26.70;;;16.23;;
79074;SDS011;68476;42.710;23.388;2023-04-08T02:17:02;25.63;;;16.58;;
79074;SDS011;68476;42.710;23.388;2023-04-08T02:19:52;24.17;;;15.95;;
79074;SDS011;68476;42.710;23.388;2023-04-08T02:25:23;24.23;;;16.15;;
79074;SDS011;68476;42.710;23.388;2023-04-08T02:27:50;24.73;;;15.88;;
79074;SDS011;68476;42.710;23.388;2023-04-08T02:30:17;24.50;;;15.55;;
79074;SDS011;68476;42.710;23.388;2023-04-08T02:32:44;28.42;;;17.35;;
79074;SDS011;68476;42.710;23.388;2023-04-08T02:35:11;26.80;;;17.35;;
79074;SDS011;68476;42.710;23.388;2023-04-08T02:37:38;25.50;;;16.40;;
79074;SDS011;68476;42.710;23.388;2023-04-08T02:40:20;23.35;;;15.30;;
79074;SDS011;68476;42.710;23.388;2023-04-08T02:42:53;22.08;;;15.02;;
79074;SDS011;68476;42.710;23.388;2023-04-08T02:45:19;26.02;;;16.75;;
79074;SDS011;68476;42.710;23.388;2023-04-08T02:47:45;25.85;;;15.73;;
79074;SDS011;68476;42.710;23.388;2023-04-08T02:50:11;23.52;;;15.25;;
79074;SDS011;68476;42.710;23.388;2023-04-08T02:52:36;24.73;;;16.17;;
79074;SDS011;68476;42.710;23.388;2023-04-08T02:55:01;27.10;;;17.23;;
79074;SDS011;68476;42.710;23.388;2023-04-08T02:57:27;29.05;;;18.17;;
79074;SDS011;68476;42.710;23.388;2023-04-08T02:59:53;28.00;;;17.95;;
79074;SDS011;68476;42.710;23.388;2023-04-08T03:02:18;29.17;;;18.80;;
79074;SDS011;68476;42.710;23.388;2023-04-08T03:04:44;29.23;;;18.50;;
79074;SDS011;68476;42.710;23.388;2023-04-08T03:07:09;29.95;;;19.48;;
79074;SDS011;68476;42.710;23.388;2023-04-08T03:09:35;28.40;;;18.25;;
79074;SDS011;68476;42.710;23.388;2023-04-08T03:12:00;31.67;;;18.25;;
79074;SDS011;68476;42.710;23.388;2023-04-08T03:14:25;30.40;;;18.85;;
79074;SDS011;68476;42.710;23.388;2023-04-08T03:16:51;24.38;;;16.10;;
79074;SDS011;68476;42.710;23.388;2023-04-08T03:19:16;24.65;;;15.57;;
79074;SDS011;68476;42.710;23.388;2023-04-08T03:21:41;21.52;;;13.55;;
79074;SDS011;68476;42.710;23.388;2023-04-08T03:24:07;24.48;;;15.25;;
79074;SDS011;68476;42.710;23.388;2023-04-08T03:26:32;20.45;;;13.32;;
79074;SDS011;68476;42.710;23.388;2023-04-08T03:28:57;18.58;;;13.05;;
79074;SDS011;68476;42.710;23.388;2023-04-08T03:31:23;22.35;;;12.48;;
79074;SDS011;68476;42.710;23.388;2023-04-08T03:33:48;19.52;;;12.20;;
79074;SDS011;68476;42.710;23.388;2023-04-08T03:36:14;17.33;;;12.05;;
79074;SDS011;68476;42.710;23.388;2023-04-08T03:38:39;17.75;;;11.57;;
79074;SDS011;68476;42.710;23.388;2023-04-08T03:41:05;14.48;;;10.65;;
79074;SDS011;68476;42.710;23.388;2023-04-08T03:43:30;15.52;;;11.40;;
79074;SDS011;68476;42.710;23.388;2023-04-08T03:45:56;17.83;;;11.85;;
79074;SDS011;68476;42.710;23.388;2023-04-08T03:48:22;17.42;;;11.57;;
79074;SDS011;68476;42.710;23.388;2023-04-08T03:50:47;16.40;;;10.95;;
79074;SDS011;68476;42.710;23.388;2023-04-08T03:53:12;14.85;;;10.57;;
79074;SDS011;68476;42.710;23.388;2023-04-08T03:55:38;20.10;;;12.82;;
79074;SDS011;68476;42.710;23.388;2023-04-08T03:58:03;17.55;;;10.90;;
79074;SDS011;68476;42.710;23.388;2023-04-08T04:00:29;17.13;;;12.60;;
79074;SDS011;68476;42.710;23.388;2023-04-08T04:02:54;17.10;;;12.07;;
79074;SDS011;68476;42.710;23.388;2023-04-08T04:05:20;16.90;;;11.70;;
79074;SDS011;68476;42.710;23.388;2023-04-08T04:07:46;16.40;;;10.48;;
79074;SDS011;68476;42.710;23.388;2023-04-08T04:10:11;19.85;;;11.82;;
79074;SDS011;68476;42.710;23.388;2023-04-08T04:12:37;20.05;;;12.98;;
79074;SDS011;68476;42.710;23.388;2023-04-08T04:15:02;20.25;;;12.80;;
79074;SDS011;68476;42.710;23.388;2023-04-08T04:17:28;18.88;;;13.13;;
79074;SDS011;68476;42.710;23.388;2023-04-08T04:19:54;21.23;;;12.40;;
79074;SDS011;68476;42.710;23.388;2023-04-08T04:22:19;19.20;;;13.55;;
79074;SDS011;68476;42.710;23.388;2023-04-08T04:24:48;22.08;;;13.77;;
79074;SDS011;68476;42.710;23.388;2023-04-08T04:27:14;20.30;;;12.65;;
79074;SDS011;68476;42.710;23.388;2023-04-08T04:29:42;21.20;;;11.93;;
79074;SDS011;68476;42.710;23.388;2023-04-08T04:32:08;20.60;;;12.63;;
79074;SDS011;68476;42.710;23.388;2023-04-08T04:34:33;21.55;;;12.38;;
79074;SDS011;68476;42.710;23.388;2023-04-08T04:36:59;21.90;;;12.65;;
79074;SDS011;68476;42.710;23.388;2023-04-08T04:39:24;21.13;;;13.77;;
79074;SDS011;68476;42.710;23.388;2023-04-08T04:41:50;20.13;;;12.75;;
79074;SDS011;68476;42.710;23.388;2023-04-08T04:44:15;20.20;;;11.57;;
79074;SDS011;68476;42.710;23.388;2023-04-08T04:46:41;19.60;;;12.65;;
79074;SDS011;68476;42.710;23.388;2023-04-08T04:49:06;20.77;;;13.07;;
79074;SDS011;68476;42.710;23.388;2023-04-08T04:51:32;19.48;;;13.45;;
79074;SDS011;68476;42.710;23.388;2023-04-08T04:53:57;18.45;;;13.13;;
79074;SDS011;68476;42.710;23.388;2023-04-08T04:56:23;17.55;;;12.68;;
79074;SDS011;68476;42.710;23.388;2023-04-08T04:58:50;18.92;;;11.95;;
79074;SDS011;68476;42.710;23.388;2023-04-08T05:01:15;17.13;;;12.07;;
79074;SDS011;68476;42.710;23.388;2023-04-08T05:03:41;19.35;;;11.38;;
79074;SDS011;68476;42.710;23.388;2023-04-08T05:06:06;16.40;;;11.50;;
79074;SDS011;68476;42.710;23.388;2023-04-08T05:08:31;16.00;;;11.52;;
79074;SDS011;68476;42.710;23.388;2023-04-08T05:10:57;16.27;;;10.63;;
79074;SDS011;68476;42.710;23.388;2023-04-08T05:13:26;18.90;;;12.18;;
79074;SDS011;68476;42.710;23.388;2023-04-08T05:15:54;20.15;;;12.07;;
79074;SDS011;68476;42.710;23.388;2023-04-08T05:18:19;18.60;;;11.63;;
79074;SDS011;68476;42.710;23.388;2023-04-08T05:20:45;19.83;;;11.60;;
79074;SDS011;68476;42.710;23.388;2023-04-08T05:23:10;21.13;;;13.68;;
79074;SDS011;68476;42.710;23.388;2023-04-08T05:25:36;24.00;;;14.00;;
79074;SDS011;68476;42.710;23.388;2023-04-08T05:28:02;22.55;;;13.68;;
79074;SDS011;68476;42.710;23.388;2023-04-08T05:30:28;17.95;;;12.98;;
79074;SDS011;68476;42.710;23.388;2023-04-08T05:32:53;18.35;;;12.18;;
79074;SDS011;68476;42.710;23.388;2023-04-08T05:35:19;18.65;;;12.52;;
79074;SDS011;68476;42.710;23.388;2023-04-08T05:37:44;16.30;;;11.52;;
79074;SDS011;68476;42.710;23.388;2023-04-08T05:40:09;17.25;;;11.43;;
79074;SDS011;68476;42.710;23.388;2023-04-08T05:42:35;15.68;;;10.45;;
79074;SDS011;68476;42.710;23.388;2023-04-08T05:45:00;16.15;;;11.35;;
79074;SDS011;68476;42.710;23.388;2023-04-08T05:47:26;18.15;;;11.98;;
79074;SDS011;68476;42.710;23.388;2023-04-08T05:49:51;17.60;;;12.10;;
79074;SDS011;68476;42.710;23.388;2023-04-08T05:52:17;20.67;;;12.68;;
79074;SDS011;68476;42.710;23.388;2023-04-08T05:54:42;25.65;;;14.25;;
79074;SDS011;68476;42.710;23.388;2023-04-08T05:57:08;25.38;;;14.05;;
79074;SDS011;68476;42.710;23.388;2023-04-08T05:59:33;18.67;;;12.85;;
79074;SDS011;68476;42.710;23.388;2023-04-08T06:01:59;16.92;;;12.38;;
79074;SDS011;68476;42.710;23.388;2023-04-08T06:04:24;18.35;;;13.02;;
79074;SDS011;68476;42.710;23.388;2023-04-08T06:06:50;21.05;;;13.00;;
79074;SDS011;68476;42.710;23.388;2023-04-08T06:09:15;21.08;;;13.13;;
79074;SDS011;68476;42.710;23.388;2023-04-08T06:11:41;16.55;;;11.20;;
79074;SDS011;68476;42.710;23.388;2023-04-08T06:14:06;18.63;;;12.75;;
79074;SDS011;68476;42.710;23.388;2023-04-08T06:16:32;18.75;;;13.10;;
79074;SDS011;68476;42.710;23.388;2023-04-08T06:18:57;20.20;;;12.90;;
79074;SDS011;68476;42.710;23.388;2023-04-08T06:21:22;20.02;;;12.63;;
79074;SDS011;68476;42.710;23.388;2023-04-08T06:23:48;19.90;;;12.52;;
79074;SDS011;68476;42.710;23.388;2023-04-08T06:26:13;20.48;;;13.02;;
79074;SDS011;68476;42.710;23.388;2023-04-08T06:28:39;22.02;;;12.75;;
79074;SDS011;68476;42.710;23.388;2023-04-08T06:31:04;17.80;;;12.65;;
79074;SDS011;68476;42.710;23.388;2023-04-08T06:33:30;25.65;;;13.57;;
79074;SDS011;68476;42.710;23.388;2023-04-08T06:36:05;17.67;;;12.50;;
79074;SDS011;68476;42.710;23.388;2023-04-08T06:38:32;18.80;;;12.55;;
79074;SDS011;68476;42.710;23.388;2023-04-08T06:41:04;18.58;;;13.98;;
79074;SDS011;68476;42.710;23.388;2023-04-08T06:43:30;20.17;;;13.35;;
79074;SDS011;68476;42.710;23.388;2023-04-08T06:45:56;27.88;;;13.70;;
79074;SDS011;68476;42.710;23.388;2023-04-08T06:48:22;17.70;;;12.43;;
79074;SDS011;68476;42.710;23.388;2023-04-08T06:50:52;17.00;;;11.52;;
79074;SDS011;68476;42.710;23.388;2023-04-08T06:53:18;18.20;;;12.98;;
79074;SDS011;68476;42.710;23.388;2023-04-08T06:55:43;18.20;;;12.27;;
79074;SDS011;68476;42.710;23.388;2023-04-08T06:58:09;18.20;;;10.85;;
79074;SDS011;68476;42.710;23.388;2023-04-08T07:00:34;19.88;;;11.88;;
79074;SDS011;68476;42.710;23.388;2023-04-08T07:03:01;16.40;;;12.45;;
79074;SDS011;68476;42.710;23.388;2023-04-08T07:05:26;17.77;;;12.27;;
79074;SDS011;68476;42.710;23.388;2023-04-08T07:07:51;17.63;;;12.48;;
79074;SDS011;68476;42.710;23.388;2023-04-08T07:10:17;17.25;;;13.00;;
79074;SDS011;68476;42.710;23.388;2023-04-08T07:12:42;15.77;;;11.30;;
79074;SDS011;68476;42.710;23.388;2023-04-08T07:15:08;18.38;;;13.32;;
79074;SDS011;68476;42.710;23.388;2023-04-08T07:17:33;19.65;;;13.50;;
79074;SDS011;68476;42.710;23.388;2023-04-08T07:19:59;17.25;;;13.18;;
79074;SDS011;68476;42.710;23.388;2023-04-08T07:22:24;20.15;;;13.93;;
79074;SDS011;68476;42.710;23.388;2023-04-08T07:24:50;17.85;;;13.23;;
79074;SDS011;68476;42.710;23.388;2023-04-08T07:27:16;16.35;;;13.07;;
79074;SDS011;68476;42.710;23.388;2023-04-08T07:29:41;16.08;;;11.68;;
79074;SDS011;68476;42.710;23.388;2023-04-08T07:32:06;16.70;;;13.07;;
79074;SDS011;68476;42.710;23.388;2023-04-08T07:34:35;15.77;;;12.35;;
79074;SDS011;68476;42.710;23.388;2023-04-08T07:37:00;18.40;;;12.93;;
79074;SDS011;68476;42.710;23.388;2023-04-08T07:39:26;16.27;;;12.82;;
79074;SDS011;68476;42.710;23.388;2023-04-08T07:41:52;16.75;;;12.63;;
79074;SDS011;68476;42.710;23.388;2023-04-08T07:44:17;17.33;;;13.02;;
79074;SDS011;68476;42.710;23.388;2023-04-08T07:46:43;17.70;;;13.55;;
79074;SDS011;68476;42.710;23.388;2023-04-08T07:49:15;14.95;;;11.95;;
79074;SDS011;68476;42.710;23.388;2023-04-08T07:51:41;16.98;;;12.05;;
79074;SDS011;68476;42.710;23.388;2023-04-08T07:54:06;19.35;;;14.38;;
79074;SDS011;68476;42.710;23.388;2023-04-08T07:56:31;18.00;;;12.90;;
79074;SDS011;68476;42.710;23.388;2023-04-08T07:58:57;18.13;;;12.45;;
79074;SDS011;68476;42.710;23.388;2023-04-08T08:01:22;19.30;;;13.68;;
79074;SDS011;68476;42.710;23.388;2023-04-08T08:03:48;17.20;;;13.70;;
79074;SDS011;68476;42.710;23.388;2023-04-08T08:06:15;22.50;;;14.40;;
79074;SDS011;68476;42.710;23.388;2023-04-08T08:08:41;18.25;;;13.55;;
79074;SDS011;68476;42.710;23.388;2023-04-08T08:11:06;17.38;;;12.15;;
79074;SDS011;68476;42.710;23.388;2023-04-08T08:13:32;18.70;;;13.68;;
79074;SDS011;68476;42.710;23.388;2023-04-08T08:15:58;17.25;;;12.75;;
79074;SDS011;68476;42.710;23.388;2023-04-08T08:18:23;17.85;;;12.35;;
79074;SDS011;68476;42.710;23.388;2023-04-08T08:20:48;18.02;;;13.13;;
79074;SDS011;68476;42.710;23.388;2023-04-08T08:23:14;17.67;;;12.50;;
79074;SDS011;68476;42.710;23.388;2023-04-08T08:25:39;17.63;;;12.88;;
79074;SDS011;68476;42.710;23.388;2023-04-08T08:28:05;16.60;;;12.10;;
79074;SDS011;68476;42.710;23.388;2023-04-08T08:30:31;17.17;;;12.77;;
79074;SDS011;68476;42.710;23.388;2023-04-08T08:32:56;20.65;;;13.32;;
79074;SDS011;68476;42.710;23.388;2023-04-08T08:35:23;22.23;;;16.58;;
79074;SDS011;68476;42.710;23.388;2023-04-08T08:37:48;22.98;;;13.15;;
79074;SDS011;68476;42.710;23.388;2023-04-08T08:40:14;16.52;;;12.90;;
79074;SDS011;68476;42.710;23.388;2023-04-08T08:42:40;23.63;;;15.52;;
79074;SDS011;68476;42.710;23.388;2023-04-08T08:45:07;17.20;;;12.77;;
79074;SDS011;68476;42.710;23.388;2023-04-08T08:47:32;20.13;;;13.82;;
79074;SDS011;68476;42.710;23.388;2023-04-08T08:49:58;17.35;;;13.23;;
79074;SDS011;68476;42.710;23.388;2023-04-08T08:52:23;16.65;;;13.63;;
79074;SDS011;68476;42.710;23.388;2023-04-08T08:54:56;15.88;;;11.75;;
79074;SDS011;68476;42.710;23.388;2023-04-08T08:57:22;20.08;;;13.38;;
79074;SDS011;68476;42.710;23.388;2023-04-08T08:59:47;15.75;;;12.23;;
79074;SDS011;68476;42.710;23.388;2023-04-08T09:02:26;17.58;;;11.95;;
79074;SDS011;68476;42.710;23.388;2023-04-08T09:05:02;17.77;;;13.02;;
79074;SDS011;68476;42.710;23.388;2023-04-08T09:07:29;19.67;;;13.88;;
79074;SDS011;68476;42.710;23.388;2023-04-08T09:09:59;19.13;;;13.32;;
79074;SDS011;68476;42.710;23.388;2023-04-08T09:12:24;18.58;;;12.82;;
79074;SDS011;68476;42.710;23.388;2023-04-08T09:15:02;18.33;;;12.95;;
79074;SDS011;68476;42.710;23.388;2023-04-08T09:17:31;18.27;;;13.02;;
79074;SDS011;68476;42.710;23.388;2023-04-08T09:20:08;18.83;;;12.55;;
79074;SDS011;68476;42.710;23.388;2023-04-08T09:22:59;18.25;;;12.38;;
79074;SDS011;68476;42.710;23.388;2023-04-08T09:25:28;17.63;;;11.98;;
79074;SDS011;68476;42.710;23.388;2023-04-08T09:27:56;16.55;;;11.55;;
79074;SDS011;68476;42.710;23.388;2023-04-08T09:30:22;19.55;;;12.77;;
79074;SDS011;68476;42.710;23.388;2023-04-08T09:32:55;22.30;;;13.55;;
79074;SDS011;68476;42.710;23.388;2023-04-08T09:35:23;18.60;;;13.30;;
79074;SDS011;68476;42.710;23.388;2023-04-08T09:37:49;19.67;;;13.98;;
79074;SDS011;68476;42.710;23.388;2023-04-08T09:40:15;19.38;;;13.48;;
79074;SDS011;68476;42.710;23.388;2023-04-08T09:42:45;26.63;;;16.00;;
79074;SDS011;68476;42.710;23.388;2023-04-08T09:45:14;18.70;;;13.93;;
79074;SDS011;68476;42.710;23.388;2023-04-08T09:48:27;17.20;;;11.88;;
79074;SDS011;68476;42.710;23.388;2023-04-08T09:50:48;20.35;;;13.13;;
79074;SDS011;68476;42.710;23.388;2023-04-08T09:53:34;17.08;;;11.60;;
79074;SDS011;68476;42.710;23.388;2023-04-08T09:56:09;20.30;;;13.20;;
79074;SDS011;68476;42.710;23.388;2023-04-08T09:59:10;17.48;;;13.45;;
79074;SDS011;68476;42.710;23.388;2023-04-08T10:01:37;18.17;;;13.75;;
79074;SDS011;68476;42.710;23.388;2023-04-08T10:04:04;18.20;;;12.40;;
79074;SDS011;68476;42.710;23.388;2023-04-08T10:06:34;18.52;;;13.52;;
79074;SDS011;68476;42.710;23.388;2023-04-08T10:09:01;19.15;;;13.05;;
79074;SDS011;68476;42.710;23.388;2023-04-08T10:11:28;17.17;;;11.52;;
79074;SDS011;68476;42.710;23.388;2023-04-08T10:13:55;17.73;;;13.38;;
79074;SDS011;68476;42.710;23.388;2023-04-08T10:18:48;17.40;;;12.10;;
79074;SDS011;68476;42.710;23.388;2023-04-08T10:24:01;16.92;;;13.35;;
79074;SDS011;68476;42.710;23.388;2023-04-08T10:26:40;14.65;;;10.65;;
79074;SDS011;68476;42.710;23.388;2023-04-08T10:31:45;16.05;;;12.55;;
79074;SDS011;68476;42.710;23.388;2023-04-08T10:36:44;15.23;;;11.75;;
79074;SDS011;68476;42.710;23.388;2023-04-08T10:39:11;13.90;;;9.95;;
79074;SDS011;68476;42.710;23.388;2023-04-08T10:41:41;14.52;;;10.73;;
79074;SDS011;68476;42.710;23.388;2023-04-08T10:44:17;15.40;;;11.20;;
79074;SDS011;68476;42.710;23.388;2023-04-08T10:46:46;16.25;;;11.85;;
79074;SDS011;68476;42.710;23.388;2023-04-08T10:49:13;14.57;;;11.18;;
79074;SDS011;68476;42.710;23.388;2023-04-08T10:51:40;16.42;;;12.15;;
79074;SDS011;68476;42.710;23.388;2023-04-08T10:54:12;15.60;;;13.00;;
79074;SDS011;68476;42.710;23.388;2023-04-08T10:56:48;16.75;;;12.23;;
79074;SDS011;68476;42.710;23.388;2023-04-08T10:59:16;14.43;;;11.10;;
79074;SDS011;68476;42.710;23.388;2023-04-08T11:01:50;15.52;;;10.63;;
79074;SDS011;68476;42.710;23.388;2023-04-08T11:04:16;17.80;;;12.15;;
79074;SDS011;68476;42.710;23.388;2023-04-08T11:06:43;14.38;;;10.55;;
79074;SDS011;68476;42.710;23.388;2023-04-08T11:09:10;23.10;;;12.07;;
79074;SDS011;68476;42.710;23.388;2023-04-08T11:11:35;20.92;;;14.38;;
79074;SDS011;68476;42.710;23.388;2023-04-08T11:14:01;16.38;;;11.80;;
79074;SDS011;68476;42.710;23.388;2023-04-08T11:16:27;14.82;;;11.48;;
79074;SDS011;68476;42.710;23.388;2023-04-08T11:18:53;16.27;;;12.00;;
79074;SDS011;68476;42.710;23.388;2023-04-08T11:21:19;13.98;;;10.40;;
79074;SDS011;68476;42.710;23.388;2023-04-08T11:23:50;17.25;;;11.63;;
79074;SDS011;68476;42.710;23.388;2023-04-08T11:26:16;14.60;;;10.75;;
79074;SDS011;68476;42.710;23.388;2023-04-08T11:28:43;12.88;;;10.55;;
79074;SDS011;68476;42.710;23.388;2023-04-08T11:31:09;14.65;;;11.80;;
79074;SDS011;68476;42.710;23.388;2023-04-08T11:33:35;12.50;;;9.50;;
79074;SDS011;68476;42.710;23.388;2023-04-08T11:36:01;13.38;;;10.13;;
79074;SDS011;68476;42.710;23.388;2023-04-08T11:38:30;12.73;;;9.65;;
79074;SDS011;68476;42.710;23.388;2023-04-08T11:40:56;13.32;;;8.75;;
79074;SDS011;68476;42.710;23.388;2023-04-08T11:43:23;12.90;;;10.23;;
79074;SDS011;68476;42.710;23.388;2023-04-08T11:45:50;12.40;;;10.00;;
79074;SDS011;68476;42.710;23.388;2023-04-08T11:48:16;11.40;;;10.23;;
79074;SDS011;68476;42.710;23.388;2023-04-08T11:50:42;12.13;;;10.82;;
79074;SDS011;68476;42.710;23.388;2023-04-08T11:53:23;13.45;;;10.77;;
79074;SDS011;68476;42.710;23.388;2023-04-08T11:55:50;13.90;;;10.48;;
79074;SDS011;68476;42.710;23.388;2023-04-08T11:58:15;10.30;;;8.45;;
79074;SDS011;68476;42.710;23.388;2023-04-08T12:00:41;10.98;;;8.95;;
79074;SDS011;68476;42.710;23.388;2023-04-08T12:03:08;12.02;;;8.90;;
79074;SDS011;68476;42.710;23.388;2023-04-08T12:05:34;12.60;;;9.02;;
79074;SDS011;68476;42.710;23.388;2023-04-08T12:07:59;12.18;;;8.57;;
79074;SDS011;68476;42.710;23.388;2023-04-08T12:10:25;16.27;;;11.98;;
79074;SDS011;68476;42.710;23.388;2023-04-08T12:12:50;11.75;;;9.73;;
79074;SDS011;68476;42.710;23.388;2023-04-08T12:15:16;58.00;;;38.03;;
79074;SDS011;68476;42.710;23.388;2023-04-08T12:17:41;10.23;;;7.82;;
79074;SDS011;68476;42.710;23.388;2023-04-08T12:22:36;10.45;;;7.88;;
79074;SDS011;68476;42.710;23.388;2023-04-08T12:25:02;10.30;;;7.55;;
79074;SDS011;68476;42.710;23.388;2023-04-08T12:27:31;9.63;;;7.75;;
79074;SDS011;68476;42.710;23.388;2023-04-08T12:30:00;12.48;;;8.82;;
79074;SDS011;68476;42.710;23.388;2023-04-08T12:32:27;9.50;;;8.50;;
79074;SDS011;68476;42.710;23.388;2023-04-08T12:34:52;8.25;;;7.38;;
79074;SDS011;68476;42.710;23.388;2023-04-08T12:37:18;8.13;;;7.25;;
79074;SDS011;68476;42.710;23.388;2023-04-08T12:39:44;9.88;;;7.05;;
79074;SDS011;68476;42.710;23.388;2023-04-08T12:42:10;8.15;;;7.35;;
79074;SDS011;68476;42.710;23.388;2023-04-08T12:44:35;12.75;;;10.23;;
79074;SDS011;68476;42.710;23.388;2023-04-08T12:47:01;9.10;;;7.28;;
79074;SDS011;68476;42.710;23.388;2023-04-08T12:49:26;9.82;;;8.32;;
79074;SDS011;68476;42.710;23.388;2023-04-08T12:51:52;10.02;;;8.45;;
79074;SDS011;68476;42.710;23.388;2023-04-08T12:54:17;13.15;;;10.32;;
79074;SDS011;68476;42.710;23.388;2023-04-08T12:56:43;18.60;;;13.00;;
79074;SDS011;68476;42.710;23.388;2023-04-08T12:59:09;13.95;;;9.95;;
79074;SDS011;68476;42.710;23.388;2023-04-08T13:01:35;14.43;;;10.75;;
79074;SDS011;68476;42.710;23.388;2023-04-08T13:04:00;22.58;;;14.73;;
79074;SDS011;68476;42.710;23.388;2023-04-08T13:06:25;14.50;;;9.18;;
79074;SDS011;68476;42.710;23.388;2023-04-08T13:08:51;13.18;;;8.70;;
79074;SDS011;68476;42.710;23.388;2023-04-08T13:11:17;20.20;;;10.55;;
79074;SDS011;68476;42.710;23.388;2023-04-08T13:13:42;12.88;;;7.93;;
79074;SDS011;68476;42.710;23.388;2023-04-08T13:16:08;8.18;;;6.20;;
79074;SDS011;68476;42.710;23.388;2023-04-08T13:18:34;9.40;;;6.13;;
79074;SDS011;68476;42.710;23.388;2023-04-08T13:21:00;9.23;;;6.07;;
79074;SDS011;68476;42.710;23.388;2023-04-08T13:23:26;8.70;;;5.75;;
79074;SDS011;68476;42.710;23.388;2023-04-08T13:25:51;8.57;;;6.45;;
79074;SDS011;68476;42.710;23.388;2023-04-08T13:28:17;10.77;;;6.53;;
79074;SDS011;68476;42.710;23.388;2023-04-08T13:30:42;8.77;;;6.80;;
79074;SDS011;68476;42.710;23.388;2023-04-08T13:33:07;8.00;;;6.28;;
79074;SDS011;68476;42.710;23.388;2023-04-08T13:35:33;10.82;;;7.32;;
79074;SDS011;68476;42.710;23.388;2023-04-08T13:37:58;10.35;;;7.50;;
79074;SDS011;68476;42.710;23.388;2023-04-08T13:40:24;9.30;;;6.90;;
79074;SDS011;68476;42.710;23.388;2023-04-08T13:42:51;11.60;;;7.65;;
79074;SDS011;68476;42.710;23.388;2023-04-08T13:45:16;10.63;;;7.93;;
79074;SDS011;68476;42.710;23.388;2023-04-08T13:47:41;11.30;;;8.38;;
79074;SDS011;68476;42.710;23.388;2023-04-08T13:50:07;10.80;;;7.68;;
79074;SDS011;68476;42.710;23.388;2023-04-08T13:52:33;14.38;;;9.45;;
79074;SDS011;68476;42.710;23.388;2023-04-08T13:54:58;10.13;;;7.72;;
79074;SDS011;68476;42.710;23.388;2023-04-08T13:57:24;12.88;;;8.30;;
79074;SDS011;68476;42.710;23.388;2023-04-08T13:59:50;10.88;;;8.52;;
79074;SDS011;68476;42.710;23.388;2023-04-08T14:02:15;13.63;;;10.50;;
79074;SDS011;68476;42.710;23.388;2023-04-08T14:04:41;16.35;;;9.52;;
79074;SDS011;68476;42.710;23.388;2023-04-08T14:07:07;9.40;;;6.80;;
79074;SDS011;68476;42.710;23.388;2023-04-08T14:09:33;11.88;;;8.05;;
79074;SDS011;68476;42.710;23.388;2023-04-08T14:11:59;12.73;;;8.27;;
79074;SDS011;68476;42.710;23.388;2023-04-08T14:14:26;11.13;;;8.95;;
79074;SDS011;68476;42.710;23.388;2023-04-08T14:16:51;10.30;;;6.50;;
79074;SDS011;68476;42.710;23.388;2023-04-08T14:19:16;12.05;;;9.70;;
79074;SDS011;68476;42.710;23.388;2023-04-08T14:21:42;10.40;;;8.38;;
79074;SDS011;68476;42.710;23.388;2023-04-08T14:24:07;12.65;;;8.68;;
79074;SDS011;68476;42.710;23.388;2023-04-08T14:26:33;14.25;;;9.90;;
79074;SDS011;68476;42.710;23.388;2023-04-08T14:29:03;10.75;;;8.52;;
79074;SDS011;68476;42.710;23.388;2023-04-08T14:31:30;11.70;;;9.05;;